Lake, Michigan
Current Conditions -  °F | °C
As of 2:14 AM on Thursday 18 Dec 2014 (Local Time) from KMOP Reporting Station
Overcast Overcast  
Wind Chill: 23°   Ceiling: 1900
Heat Index: 30°   Visibility: 10mi
Dew Point: 27°   Wind: 7mph
Humidity: 90%   Direction: 260°W
Pressure: 30.16"   Gusts: NA
Location:  43.85°N, 85.01°W
Report Text: KMOP 180714Z AUTO 26006KT 10SM SCT010 OVC019 M01/M03 A3016 RMK AO2 T10121026
Loading
Personal Weather Stations






























Interactive Weather Map New forecast layout! Learn more

10-Day Weather Forecast

Advertisements
Track Severe Weather on mobile